»·PEaware :: CFC66 KLAS-KVNY

CFC66 :: KLAS-KVNY

FLIGHT INFORMATION

Flight Status: Arrived
Operator:
Canadian Armed Forces
More flights by this operator :: More flights under this callsign
Pilot: Anonymous 1753 (1753)
Aircraft: CANADAIR CL-600 CHALLENGER
(CL60)
More flights by this aircraft type
Origin: KLAS Harry Reid Intl
United States
Destination: KVNY Van Nuys
United States
More flights between these airports :: More routes between these airports
Route: RADYR2 SLVRR KREME JANNY5
File this flight plan on PilotEdge
Remarks: RMK / SIMBRIEF
Altitude:
(Current/Filed)
36,000ft
Speed:
(Current/Filed)
460kts
Departed: 14-Nov-23 05:41 PM
Arrived: 14-Nov-23 06:26 PM
Distance/Time
Traveled:
199nm/0:45
Distance/Time
To Go:
Arrived

Flight Plot

Page will automatically refresh every two minutes.

Flight plan parsing failed; only flown route is shown


Map Options




Map Legend


Flown Route
Filed Route
Departure Airport
Arrival Airport
Navaid (VOR, NDB)
Fix

Horizontal Profiles

Position Reports

Time Latitude Longitude Heading Altitude Ground
Speed
14-Nov-23 17:23 36.089465 -115.166157 359 2140ft 0kts
14-Nov-23 17:24 36.089465 -115.166157 359 2140ft 0kts
14-Nov-23 17:25 36.089465 -115.166157 359 2140ft 0kts
14-Nov-23 17:26 36.089465 -115.166157 359 2140ft 0kts
14-Nov-23 17:27 36.089465 -115.166157 359 2140ft 0kts
14-Nov-23 17:28 36.089465 -115.166157 359 2140ft 0kts
14-Nov-23 17:29 36.089465 -115.166157 359 2140ft 0kts
14-Nov-23 17:30 36.089465 -115.166157 359 2140ft 0kts
14-Nov-23 17:31 36.089465 -115.166157 359 2140ft 0kts
14-Nov-23 17:32 36.089465 -115.166157 359 2140ft 0kts
14-Nov-23 17:33 36.089465 -115.166157 359 2140ft 0kts
14-Nov-23 17:34 36.089465 -115.166157 359 2140ft 0kts
14-Nov-23 17:35 36.089465 -115.166157 359 2140ft 0kts
14-Nov-23 17:36 36.090492 -115.164087 24 2132ft 17kts
14-Nov-23 17:37 36.097601 -115.159941 26 2101ft 36kts
14-Nov-23 17:38 36.099063 -115.157969 116 2092ft 0kts
14-Nov-23 17:39 36.099019 -115.157857 116 2091ft 4kts
14-Nov-23 17:40 36.093224 -115.160092 205 2112ft 131kts
14-Nov-23 17:41 36.044453 -115.188426 202 6169ft 221kts
14-Nov-23 17:42 35.986856 -115.217668 199 9992ft 235kts
14-Nov-23 17:43 35.925093 -115.245440 201 15234ft 244kts
14-Nov-23 17:44 35.859800 -115.275079 201 19378ft 262kts
14-Nov-23 17:45 35.783268 -115.309903 201 19653ft 328kts
14-Nov-23 17:46 35.693826 -115.350435 201 20135ft 353kts
14-Nov-23 17:47 35.603855 -115.396758 222 24467ft 342kts
14-Nov-23 17:48 35.539633 -115.482591 227 28200ft 335kts
14-Nov-23 17:49 35.476938 -115.567087 227 31090ft 336kts
14-Nov-23 17:50 35.412442 -115.654142 227 33181ft 348kts
14-Nov-23 17:51 35.346431 -115.742782 225 35311ft 346kts
14-Nov-23 17:52 35.273376 -115.825678 222 35956ft 374kts
14-Nov-23 17:53 35.192439 -115.916035 222 35945ft 407kts
14-Nov-23 17:54 35.107588 -116.010582 222 35944ft 410kts
14-Nov-23 17:55 35.022533 -116.105080 222 35951ft 409kts
14-Nov-23 17:56 34.937983 -116.199646 226 34229ft 416kts
14-Nov-23 17:57 34.879497 -116.322500 242 30790ft 417kts
14-Nov-23 17:58 34.829302 -116.450853 242 26460ft 427kts
14-Nov-23 17:59 34.782763 -116.579876 258 23312ft 402kts
14-Nov-23 18:00 34.772909 -116.703273 259 22654ft 336kts
14-Nov-23 18:01 34.763098 -116.808999 259 21919ft 313kts
14-Nov-23 18:02 34.752433 -116.916973 259 21162ft 321kts
14-Nov-23 18:03 34.741594 -117.024184 259 20422ft 319kts
14-Nov-23 18:04 34.730515 -117.132710 259 19652ft 324kts
14-Nov-23 18:05 34.719341 -117.241175 259 18891ft 322kts
14-Nov-23 18:06 34.709151 -117.339249 259 18175ft 318kts
14-Nov-23 18:07 34.697980 -117.445986 259 17380ft 311kts
14-Nov-23 18:08 34.687384 -117.545725 259 16651ft 291kts
14-Nov-23 18:09 34.677002 -117.642775 259 15953ft 289kts
14-Nov-23 18:10 34.666789 -117.739048 259 15258ft 286kts
14-Nov-23 18:11 34.656585 -117.834580 259 14576ft 284kts
14-Nov-23 18:12 34.646273 -117.929662 259 13556ft 282kts
14-Nov-23 18:13 34.635985 -118.023675 259 12389ft 279kts
14-Nov-23 18:14 34.620416 -118.116180 251 11199ft 275kts
14-Nov-23 18:15 34.599816 -118.206782 252 10052ft 275kts
14-Nov-23 18:16 34.579802 -118.296236 252 8931ft 272kts
14-Nov-23 18:17 34.560101 -118.384174 252 8144ft 260kts
14-Nov-23 18:18 34.541611 -118.466248 252 7573ft 253kts
14-Nov-23 18:19 34.490563 -118.506158 182 6784ft 224kts
14-Nov-23 18:20 34.431383 -118.510483 181 5906ft 196kts
14-Nov-23 18:21 34.375994 -118.510574 171 5107ft 201kts
14-Nov-23 18:22 34.317081 -118.500651 175 3267ft 216kts
14-Nov-23 18:23 34.267966 -118.496075 177 2058ft 141kts
14-Nov-23 18:24 34.231038 -118.492431 177 1208ft 134kts
14-Nov-23 18:25 34.201848 -118.489666 176 763ft 36kts
14-Nov-23 18:26 34.196449 -118.487904 141 753ft 12kts
14-Nov-23 18:27 34.196074 -118.487571 178 752ft 0kts

Navigation Log

Ident Type
Flight plan parsing failed, navigation log unavailable